< < Back
Terminal Aerodrome Forecast


Current Version              Previous Versions:   1  2  3  4  5  6  7  8  9  

Terminal Aerodrome Forecast

703
FTUS42 KMLB 020300 AAA
TAFMCO
TAF AMD
KMCO 020302Z 0203/0224 36003KT P6SM BKN040 BKN150
     FM021400 02005KT P6SM FEW060 BKN120
     FM022000 05008KT P6SM SCT120 BKN250=



Latest METAR

822
SAUS70 KWBC 020400 RRD
MTRMCO
METAR KMCO 020353Z 36004KT 10SM FEW130 24/24 A2999 RMK AO2 SLP152
T02440239


USA.gov is the U.S. government's official web portal to all federal, state and local government web resources and services.